Time;durP1;ratioP1;P1;durP2;ratioP2;P2;SDS_P1;SDS_P2;PMS_P1;PMS_P2;Temp;Humidity;BMP_temperature;BMP_pressure;BME280_temperature;BME280_humidity;BME280_pressure;Samples;Min_cycle;Max_cycle;Signal;HPM_P1;HPM_P2
2023/04/19 00:00:39;;;;;;;8.95;4.03;;;10.50;99.90;;;;;;5072870;28;20497;-43
2023/04/19 00:03:05;;;;;;;8.20;4.68;;;10.50;99.90;;;;;;5074899;28;20025;-42
2023/04/19 00:05:31;;;;;;;7.15;4.05;;;10.50;99.90;;;;;;5069921;28;20468;-42
2023/04/19 00:07:57;;;;;;;9.13;5.55;;;10.50;99.90;;;;;;5070257;28;20059;-42
2023/04/19 00:10:26;;;;;;;8.68;5.10;;;10.50;99.90;;;;;;5059852;28;20417;-44
2023/04/19 00:12:52;;;;;;;9.65;5.07;;;10.50;99.90;;;;;;5053900;28;20044;-43
2023/04/19 00:15:18;;;;;;;6.47;4.60;;;10.50;99.90;;;;;;5054970;28;20449;-42
2023/04/19 00:17:43;;;;;;;7.55;4.88;;;10.60;99.90;;;;;;5074658;28;20485;-51
2023/04/19 00:20:13;;;;;;;9.07;4.75;;;10.60;99.90;;;;;;5072793;28;20032;-42
2023/04/19 00:22:39;;;;;;;15.02;5.40;;;10.60;99.90;;;;;;5068003;28;20048;-53
2023/04/19 07:28:46;;;;;;;6.88;2.80;;;12.40;99.90;;;;;;5037919;28;20061;-39
2023/04/19 07:31:15;;;;;;;8.43;3.85;;;12.60;99.90;;;;;;5059965;28;20063;-36
2023/04/19 07:33:42;;;;;;;5.15;2.70;;;12.70;99.90;;;;;;5055446;28;20508;-36
2023/04/19 07:36:07;;;;;;;3.40;2.30;;;12.70;99.90;;;;;;5056227;28;20576;-38
2023/04/19 07:38:33;;;;;;;4.22;2.55;;;12.80;99.90;;;;;;5075121;28;20134;-38
2023/04/19 07:40:59;;;;;;;4.95;2.60;;;12.90;99.90;;;;;;5058930;28;20055;-35
2023/04/19 07:43:25;;;;;;;8.60;2.53;;;13.10;99.90;;;;;;5063043;28;20029;-34
2023/04/19 07:45:52;;;;;;;9.02;2.63;;;13.20;99.90;;;;;;5060677;28;20461;-34
2023/04/19 07:48:18;;;;;;;5.82;1.83;;;13.20;99.50;;;;;;5066318;28;20082;-36
2023/04/19 07:50:43;;;;;;;11.25;1.95;;;13.20;99.50;;;;;;5055178;28;20417;-37
2023/04/19 07:53:09;;;;;;;2.78;2.05;;;13.40;99.20;;;;;;5054843;28;20096;-37
2023/04/19 07:55:35;;;;;;;2.50;1.95;;;13.40;98.40;;;;;;5060067;28;20462;-38
2023/04/19 07:58:01;;;;;;;2.10;1.90;;;13.40;98.60;;;;;;5062268;28;20033;-35
2023/04/19 08:00:42;;;;;;;6.47;2.92;;;13.40;98.80;;;;;;5066699;28;20044;-35
2023/04/19 08:03:07;;;;;;;3.60;1.80;;;13.30;98.10;;;;;;5072587;28;20036;-35
2023/04/19 08:05:33;;;;;;;7.05;2.13;;;13.30;98.00;;;;;;5074502;28;20489;-36
2023/04/19 08:07:59;;;;;;;2.55;2.20;;;13.30;98.50;;;;;;5072599;28;20020;-35
2023/04/19 08:10:27;;;;;;;11.35;2.72;;;13.40;97.90;;;;;;5065093;28;20016;-33
2023/04/19 08:12:53;;;;;;;6.43;2.20;;;13.40;98.00;;;;;;5073164;28;20063;-36
2023/04/19 08:15:18;;;;;;;4.18;2.10;;;13.30;97.80;;;;;;5072167;28;20102;-38
2023/04/19 08:17:44;;;;;;;5.38;2.25;;;13.20;97.70;;;;;;5061646;28;20494;-39
2023/04/19 08:20:11;;;;;;;2.88;2.20;;;13.30;97.40;;;;;;5067535;28;20024;-35
2023/04/19 08:22:38;;;;;;;2.03;1.70;;;13.20;96.90;;;;;;5060680;28;20029;-31
2023/04/19 08:25:05;;;;;;;2.63;1.75;;;13.10;96.80;;;;;;5069072;28;20380;-37
2023/04/19 08:27:31;;;;;;;5.05;1.33;;;13.10;97.20;;;;;;5064098;28;20021;-33
2023/04/19 08:29:56;;;;;;;7.72;2.22;;;13.20;97.40;;;;;;5060187;28;20536;-34
2023/04/19 08:32:22;;;;;;;2.20;1.88;;;13.40;97.20;;;;;;5072487;28;20021;-35
2023/04/19 08:34:48;;;;;;;4.45;1.80;;;13.60;97.20;;;;;;5069785;28;20025;-33
2023/04/19 08:37:14;;;;;;;4.70;1.83;;;13.80;97.10;;;;;;5072030;28;20067;-40
2023/04/19 08:39:40;;;;;;;3.38;1.70;;;13.80;95.90;;;;;;5054678;28;20032;-34
2023/04/19 08:42:07;;;;;;;3.08;1.55;;;13.70;96.00;;;;;;5067834;28;20059;-40
2023/04/19 08:44:35;;;;;;;4.93;1.73;;;13.70;95.80;;;;;;5089453;28;20020;-37
2023/04/19 08:47:01;;;;;;;1.92;1.65;;;13.80;95.90;;;;;;5069302;28;20021;-32
2023/04/19 08:49:27;;;;;;;10.52;1.73;;;13.80;95.90;;;;;;5072998;28;20027;-32
2023/04/19 08:51:56;;;;;;;5.28;2.03;;;13.90;95.70;;;;;;5067594;28;20029;-36
2023/04/19 08:54:22;;;;;;;2.80;1.75;;;14.00;94.60;;;;;;5066429;28;20025;-38
2023/04/19 08:56:48;;;;;;;1.67;1.40;;;13.90;94.40;;;;;;5073973;28;20473;-42
2023/04/19 08:59:14;;;;;;;2.55;1.58;;;13.90;94.50;;;;;;5061142;28;20036;-41
2023/04/19 09:01:40;;;;;;;3.85;1.52;;;14.00;94.70;;;;;;5054451;28;20034;-41
2023/04/19 09:04:06;;;;;;;2.78;1.50;;;14.10;94.60;;;;;;5073248;28;20100;-46
2023/04/19 09:06:39;;;;;;;4.95;1.60;;;14.20;94.40;;;;;;5070743;28;20025;-41
2023/04/19 09:09:19;;;;;;;6.70;1.60;;;14.40;94.10;;;;;;5070297;28;20055;-40
2023/04/19 09:11:45;;;;;;;2.95;1.90;;;14.60;94.70;;;;;;5070857;28;20495;-41
2023/04/19 09:14:14;;;;;;;2.67;1.42;;;14.80;94.20;;;;;;5068555;28;20024;-38
2023/04/19 09:16:40;;;;;;;3.47;1.65;;;14.90;94.20;;;;;;5072784;28;20124;-38
2023/04/19 09:19:07;;;;;;;2.08;1.55;;;15.00;93.60;;;;;;5073336;28;20496;-39
2023/04/19 09:21:34;;;;;;;1.65;1.50;;;15.20;93.60;;;;;;5071347;28;20032;-44
2023/04/19 09:24:00;;;;;;;2.05;1.58;;;15.40;93.70;;;;;;5067568;28;20028;-46
2023/04/19 09:26:28;;;;;;;3.70;1.48;;;15.70;93.60;;;;;;5068133;28;20029;-41
2023/04/19 09:29:06;;;;;;;3.58;1.50;;;16.00;93.20;;;;;;5053404;28;20036;-43
2023/04/19 09:31:35;;;;;;;3.35;1.30;;;16.10;92.90;;;;;;5072034;28;20031;-43
2023/04/19 09:34:16;;;;;;;1.70;1.20;;;16.10;93.20;;;;;;5065570;28;20021;-43
2023/04/19 09:36:42;;;;;;;1.35;1.00;;;16.20;92.70;;;;;;5057444;28;20033;-45
2023/04/19 09:39:08;;;;;;;1.73;0.82;;;16.30;92.10;;;;;;5051627;28;20033;-42
2023/04/19 09:41:36;;;;;;;3.20;1.05;;;16.20;92.00;;;;;;5057756;28;20545;-43
2023/04/19 09:44:14;;;;;;;;;;;16.20;90.70;;;;;;5068748;28;20089;-48
2023/04/19 09:46:41;;;;;;;1.65;1.05;;;16.20;91.20;;;;;;5055976;28;20387;-44
2023/04/19 09:49:14;;;;;;;4.22;1.02;;;16.40;91.20;;;;;;5059027;28;20034;-45
2023/04/19 09:51:41;;;;;;;3.08;1.30;;;16.70;90.00;;;;;;5066514;28;20124;-43
2023/04/19 09:54:08;;;;;;;1.65;0.80;;;16.90;91.00;;;;;;5072764;28;20492;-42
2023/04/19 09:56:35;;;;;;;1.55;1.38;;;17.20;90.10;;;;;;5070610;28;20024;-43
2023/04/19 09:59:06;;;;;;;4.20;0.93;;;17.10;89.80;;;;;;5068634;28;20029;-42
2023/04/19 10:01:55;;;;;;;0.63;0.63;;;16.60;90.90;;;;;;5058254;28;20441;-46
2023/04/19 10:04:21;;;;;;;3.00;0.80;;;16.80;89.40;;;;;;5054116;28;20070;-43
2023/04/19 10:06:51;;;;;;;2.03;1.10;;;17.00;88.40;;;;;;5062784;28;20374;-43
2023/04/19 10:09:17;;;;;;;1.27;0.73;;;16.80;88.90;;;;;;5056482;28;20078;-44
2023/04/19 10:11:51;;;;;;;1.85;0.90;;;16.70;89.70;;;;;;5067218;28;20508;-40
2023/04/19 10:14:23;;;;;;;1.23;0.90;;;16.50;88.10;;;;;;5073350;28;20638;-43
2023/04/19 10:16:50;;;;;;;1.10;1.00;;;16.50;88.20;;;;;;5065993;28;20029;-41
2023/04/19 10:19:18;;;;;;;4.18;1.10;;;16.20;88.20;;;;;;5068794;28;20425;-43
2023/04/19 10:21:46;;;;;;;1.55;1.38;;;16.10;90.20;;;;;;5075685;28;20081;-44
2023/04/19 10:24:17;;;;;;;2.75;1.52;;;16.20;90.50;;;;;;5075278;28;20492;-41
2023/04/19 10:27:10;;;;;;;4.68;1.40;;;16.40;88.70;;;;;;5076726;28;20029;-44
2023/04/19 10:29:58;;;;;;;4.22;1.33;;;16.40;90.30;;;;;;5073775;28;20523;-46
2023/04/19 10:32:27;;;;;;;2.95;1.25;;;16.40;90.50;;;;;;5070643;28;20017;-42
2023/04/19 10:34:56;;;;;;;1.20;1.10;;;16.20;90.20;;;;;;5075078;28;20435;-46
2023/04/19 10:37:25;;;;;;;4.72;1.10;;;16.30;90.30;;;;;;5076170;28;20111;-42
2023/04/19 10:39:51;;;;;;;1.77;1.08;;;16.30;90.70;;;;;;5073463;28;20031;-47
2023/04/19 10:42:17;;;;;;;1.02;0.98;;;16.20;90.50;;;;;;5073451;28;20032;-45
2023/04/19 10:45:20;;;;;;;4.00;1.20;;;16.30;90.00;;;;;;5058114;28;20485;-44
2023/04/19 10:47:46;;;;;;;1.58;1.23;;;16.40;90.30;;;;;;5056062;28;20384;-41
2023/04/19 10:50:15;;;;;;;4.10;0.98;;;16.30;90.00;;;;;;5058168;28;20131;-46
2023/04/19 10:52:41;;;;;;;1.83;1.20;;;16.30;90.70;;;;;;5076253;28;20031;-43
2023/04/19 10:55:07;;;;;;;1.48;1.08;;;16.30;89.70;;;;;;5074643;28;20399;-42
2023/04/19 10:58:01;;;;;;;1.40;1.10;;;16.20;89.30;;;;;;5074802;28;20429;-42
2023/04/19 11:00:30;;;;;;;0.95;0.70;;;16.20;88.80;;;;;;5067215;28;20043;-42
2023/04/19 11:02:56;;;;;;;2.22;1.08;;;16.00;90.20;;;;;;5063691;28;20431;-43
2023/04/19 11:05:21;;;;;;;0.93;0.90;;;15.90;90.10;;;;;;5066044;28;20024;-50
2023/04/19 11:07:47;;;;;;;1.50;1.00;;;16.00;90.20;;;;;;5075108;28;20040;-43
2023/04/19 11:10:26;;;;;;;0.70;0.70;;;16.00;89.40;;;;;;5072533;28;20104;-41
2023/04/19 11:12:52;;;;;;;1.35;1.05;;;15.90;88.00;;;;;;5074242;28;20400;-41
2023/04/19 11:15:22;;;;;;;0.93;0.93;;;16.00;88.70;;;;;;5075428;28;20029;-43
2023/04/19 11:17:50;;;;;;;1.02;0.93;;;16.00;88.90;;;;;;5075131;28;20119;-46
2023/04/19 11:20:16;;;;;;;3.03;1.30;;;16.10;87.90;;;;;;5070370;28;20432;-42
2023/04/19 11:22:45;;;;;;;1.35;1.02;;;16.10;87.40;;;;;;5068240;28;20029;-44
2023/04/19 11:25:19;;;;;;;1.17;1.08;;;16.10;87.20;;;;;;5057503;28;20064;-41
2023/04/19 11:27:51;;;;;;;1.25;1.08;;;16.10;88.70;;;;;;5067794;28;20477;-44
2023/04/19 11:30:21;;;;;;;1.70;1.40;;;16.10;86.60;;;;;;5068096;28;20463;-42
2023/04/19 11:32:52;;;;;;;1.00;0.98;;;16.00;88.00;;;;;;5071812;28;20162;-38
2023/04/19 11:35:23;;;;;;;4.38;1.48;;;16.10;87.40;;;;;;5063853;28;20048;-43
2023/04/19 11:37:50;;;;;;;2.67;0.98;;;16.10;88.20;;;;;;5065637;28;20036;-44
2023/04/19 11:40:17;;;;;;;2.17;1.52;;;16.10;87.20;;;;;;5056296;28;20081;-42
2023/04/19 11:42:43;;;;;;;5.20;0.90;;;16.10;87.00;;;;;;5056617;28;20029;-42
2023/04/19 11:45:10;;;;;;;4.53;1.20;;;16.20;87.30;;;;;;5073324;28;20028;-48
2023/04/19 11:47:47;;;;;;;3.50;1.08;;;16.20;86.80;;;;;;5074817;28;20032;-42
2023/04/19 11:50:49;;;;;;;2.38;1.30;;;16.40;86.10;;;;;;5065560;28;20021;-40
2023/04/19 11:53:22;;;;;;;2.78;1.20;;;16.50;85.40;;;;;;5012751;28;20390;-41
2023/04/19 11:55:53;;;;;;;1.40;1.30;;;16.50;85.20;;;;;;5053317;28;20504;-42
2023/04/19 11:58:38;;;;;;;5.68;1.65;;;16.50;85.90;;;;;;5060680;28;20028;-44
2023/04/19 12:01:07;;;;;;;1.42;1.17;;;16.40;85.40;;;;;;5070185;28;20028;-41
2023/04/19 12:03:55;;;;;;;1.90;1.17;;;16.60;84.60;;;;;;5061970;28;20056;-41
2023/04/19 12:06:29;;;;;;;1.48;1.17;;;16.50;84.70;;;;;;5063766;28;20119;-44
2023/04/19 12:08:56;;;;;;;2.22;1.27;;;16.50;82.20;;;;;;5061881;28;20035;-43
2023/04/19 12:11:23;;;;;;;1.70;1.35;;;16.70;84.80;;;;;;5054434;28;20116;-41
2023/04/19 12:14:08;;;;;;;1.48;1.13;;;16.90;84.40;;;;;;5058077;28;20020;-35
2023/04/19 12:16:33;;;;;;;3.95;1.70;;;17.10;82.70;;;;;;5069809;28;20033;-37
2023/04/19 12:19:17;;;;;;;1.85;1.27;;;17.20;83.30;;;;;;5069979;28;20405;-37
2023/04/19 12:21:44;;;;;;;1.52;1.42;;;17.20;82.40;;;;;;5054108;28;20032;-33
2023/04/19 12:24:14;;;;;;;1.90;1.42;;;17.30;82.00;;;;;;5055848;28;20021;-35
2023/04/19 12:26:55;;;;;;;4.57;1.73;;;17.40;79.90;;;;;;5060583;28;20039;-40
2023/04/19 12:29:21;;;;;;;2.10;1.33;;;17.60;81.20;;;;;;5069872;28;20590;-38
2023/04/19 12:31:46;;;;;;;2.35;1.27;;;17.50;80.40;;;;;;5067463;28;20074;-40
2023/04/19 12:34:12;;;;;;;2.00;1.20;;;17.40;80.40;;;;;;5055436;28;20075;-35
2023/04/19 12:36:37;;;;;;;6.03;1.45;;;17.40;78.50;;;;;;5070009;28;20430;-37
2023/04/19 12:39:03;;;;;;;1.30;1.20;;;17.40;79.80;;;;;;5066080;28;20169;-35
2023/04/19 12:41:29;;;;;;;2.58;1.30;;;17.30;78.10;;;;;;5065442;28;20020;-36
2023/04/19 12:43:55;;;;;;;5.10;1.80;;;17.20;79.60;;;;;;5060911;28;20386;-44
2023/04/19 12:46:20;;;;;;;1.70;1.50;;;17.30;80.10;;;;;;5065856;28;20040;-42
2023/04/19 12:48:46;;;;;;;1.63;1.52;;;17.30;78.60;;;;;;5072300;28;20029;-43
2023/04/19 12:51:12;;;;;;;2.22;1.45;;;17.50;79.20;;;;;;5058348;28;20493;-50
2023/04/19 12:53:37;;;;;;;3.80;1.58;;;17.70;76.90;;;;;;5073617;28;20020;-43
2023/04/19 12:56:03;;;;;;;11.10;1.88;;;17.60;77.10;;;;;;5068676;28;20036;-43
2023/04/19 12:58:28;;;;;;;4.65;1.70;;;17.60;77.90;;;;;;5062166;28;20021;-42
2023/04/19 13:00:54;;;;;;;1.88;1.52;;;17.50;78.60;;;;;;5073514;28;20109;-42
2023/04/19 13:03:20;;;;;;;2.80;1.58;;;17.40;78.50;;;;;;5072173;28;20024;-44
2023/04/19 13:05:46;;;;;;;2.65;2.03;;;17.30;78.50;;;;;;5071940;28;20106;-40
2023/04/19 13:08:11;;;;;;;2.03;1.45;;;17.40;78.90;;;;;;5062490;28;20021;-40
2023/04/19 13:10:37;;;;;;;3.83;1.92;;;17.50;77.60;;;;;;5073325;28;20024;-42
2023/04/19 13:13:03;;;;;;;2.53;2.33;;;17.20;78.70;;;;;;5066801;28;20431;-44
2023/04/19 13:15:28;;;;;;;1.60;1.50;;;17.00;79.80;;;;;;5067095;28;20040;-41
2023/04/19 13:17:54;;;;;;;1.77;1.60;;;16.90;80.10;;;;;;5065211;28;20024;-41
2023/04/19 13:20:20;;;;;;;2.20;1.85;;;17.20;78.90;;;;;;5071783;28;20066;-43
2023/04/19 13:22:45;;;;;;;9.60;1.42;;;17.40;80.60;;;;;;5059164;28;20502;-42
2023/04/19 13:25:11;;;;;;;2.38;1.77;;;17.40;81.50;;;;;;5060660;28;20033;-41
2023/04/19 13:27:37;;;;;;;7.10;1.83;;;17.10;83.50;;;;;;5053123;28;20106;-49
2023/04/19 13:30:03;;;;;;;4.10;1.95;;;17.30;83.60;;;;;;5056926;28;20052;-40
2023/04/19 13:32:29;;;;;;;1.60;1.38;;;17.50;82.70;;;;;;5060413;28;20047;-39
2023/04/19 13:34:54;;;;;;;3.50;1.90;;;17.70;82.70;;;;;;5066709;28;20055;-43
2023/04/19 13:37:20;;;;;;;2.85;1.90;;;17.70;84.20;;;;;;5072903;28;20025;-41
2023/04/19 13:39:46;;;;;;;5.35;1.80;;;17.50;83.70;;;;;;5072314;28;20074;-42
2023/04/19 13:42:12;;;;;;;4.90;1.90;;;17.50;83.80;;;;;;5069631;28;20029;-41
2023/04/19 13:44:38;;;;;;;3.80;2.00;;;17.40;85.60;;;;;;5072516;28;20036;-40
2023/04/19 13:47:04;;;;;;;3.45;2.47;;;17.50;85.30;;;;;;5067795;28;20997;-46
2023/04/19 13:49:30;;;;;;;2.72;1.77;;;17.60;83.60;;;;;;5069229;28;20046;-38
2023/04/19 13:51:55;;;;;;;2.90;1.80;;;17.40;82.30;;;;;;5061834;28;20025;-44
2023/04/19 13:54:21;;;;;;;2.55;1.85;;;17.40;83.70;;;;;;5062357;28;20520;-41
2023/04/19 13:56:47;;;;;;;9.77;1.85;;;17.40;82.80;;;;;;5064052;28;20029;-41
2023/04/19 13:59:12;;;;;;;1.77;1.42;;;17.50;83.80;;;;;;5062722;28;20025;-42
2023/04/19 14:01:38;;;;;;;3.05;1.45;;;17.60;83.20;;;;;;5063948;28;20472;-46
2023/04/19 14:04:04;;;;;;;2.53;1.55;;;17.80;83.60;;;;;;5063217;28;20029;-42
2023/04/19 14:06:29;;;;;;;15.10;1.77;;;17.70;83.40;;;;;;5064819;28;20539;-38
2023/04/19 14:08:55;;;;;;;4.95;2.00;;;17.60;82.70;;;;;;5067267;28;20111;-41
2023/04/19 14:11:22;;;;;;;2.55;1.60;;;17.50;82.20;;;;;;5067910;28;20012;-44
2023/04/19 14:13:47;;;;;;;5.55;1.65;;;17.60;82.90;;;;;;5062091;28;20087;-42
2023/04/19 14:16:13;;;;;;;1.75;1.65;;;17.40;81.20;;;;;;5066858;28;20036;-43
2023/04/19 14:18:39;;;;;;;2.28;1.40;;;17.60;81.50;;;;;;5064703;28;20058;-44
2023/04/19 14:21:05;;;;;;;5.53;1.70;;;17.90;82.00;;;;;;5070341;28;20024;-42
2023/04/19 14:23:32;;;;;;;5.85;1.35;;;18.10;81.80;;;;;;5072604;28;20028;-46
2023/04/19 14:25:57;;;;;;;3.63;1.67;;;18.20;80.60;;;;;;5071039;28;20025;-42
2023/04/19 14:28:23;;;;;;;3.53;1.85;;;18.40;81.20;;;;;;5065224;28;20358;-43
2023/04/19 14:30:49;;;;;;;1.90;1.70;;;18.40;80.50;;;;;;5056709;28;20492;-44
2023/04/19 14:33:14;;;;;;;2.00;1.50;;;18.30;80.00;;;;;;5066819;28;20020;-42
2023/04/19 14:35:40;;;;;;;3.70;1.73;;;18.00;80.80;;;;;;5065645;28;20071;-43
2023/04/19 14:38:06;;;;;;;2.95;1.27;;;18.00;81.70;;;;;;5067222;28;20029;-48
2023/04/19 14:40:32;;;;;;;3.25;1.67;;;18.20;79.90;;;;;;5070921;28;20480;-45
2023/04/19 14:42:57;;;;;;;2.95;1.70;;;18.30;81.50;;;;;;5066916;28;20024;-47
2023/04/19 14:45:23;;;;;;;1.10;1.00;;;18.30;80.80;;;;;;5058570;28;20025;-42
2023/04/19 14:47:49;;;;;;;3.25;1.63;;;18.10;80.80;;;;;;5063761;28;20025;-40
2023/04/19 14:50:14;;;;;;;1.70;1.42;;;18.30;80.40;;;;;;5067391;28;20029;-43
2023/04/19 14:52:40;;;;;;;1.48;1.38;;;18.10;81.20;;;;;;5055424;28;20021;-42
2023/04/19 14:55:06;;;;;;;1.73;1.55;;;18.30;80.90;;;;;;5062170;28;20024;-46
2023/04/19 14:57:32;;;;;;;3.13;1.63;;;18.40;80.40;;;;;;5059799;28;20028;-44
2023/04/19 14:59:59;;;;;;;6.63;2.05;;;18.40;81.60;;;;;;5063235;28;20474;-47
2023/04/19 15:02:25;;;;;;;2.65;1.92;;;18.30;80.20;;;;;;5059497;28;20607;-43
2023/04/19 15:04:52;;;;;;;5.05;1.55;;;18.10;80.70;;;;;;5065363;28;20400;-42
2023/04/19 15:07:17;;;;;;;1.90;1.60;;;18.00;81.10;;;;;;5069921;28;21296;-44
2023/04/19 15:09:43;;;;;;;2.10;1.90;;;18.10;82.00;;;;;;5058814;28;20401;-40
2023/04/19 15:12:09;;;;;;;2.40;1.63;;;18.10;80.80;;;;;;5067529;28;20023;-42
2023/04/19 15:14:35;;;;;;;1.70;1.55;;;17.90;80.30;;;;;;5063755;28;21598;-39
2023/04/19 15:17:00;;;;;;;3.90;1.55;;;17.50;82.50;;;;;;5073209;28;20020;-49
2023/04/19 15:19:28;;;;;;;3.35;1.63;;;17.50;83.30;;;;;;5055447;28;20025;-52
2023/04/19 15:21:54;;;;;;;5.43;3.00;;;17.50;82.40;;;;;;5057887;28;20119;-43
2023/04/19 15:24:19;;;;;;;1.80;1.45;;;17.40;82.60;;;;;;5075360;28;20123;-35
2023/04/19 15:26:45;;;;;;;1.63;1.40;;;17.60;82.00;;;;;;5069929;28;20497;-43
2023/04/19 15:29:11;;;;;;;2.05;1.85;;;17.70;83.10;;;;;;5054950;28;20413;-40
2023/04/19 15:31:37;;;;;;;2.45;1.58;;;17.70;82.50;;;;;;5059422;28;20112;-45
2023/04/19 15:34:04;;;;;;;12.10;2.20;;;17.80;82.80;;;;;;5073170;28;20445;-41
2023/04/19 15:36:30;;;;;;;3.47;1.70;;;17.70;84.00;;;;;;5069407;28;20082;-45
2023/04/19 15:38:57;;;;;;;2.47;1.92;;;17.60;84.90;;;;;;5071861;28;20039;-44
2023/04/19 15:41:22;;;;;;;3.80;1.95;;;17.70;85.30;;;;;;5064345;28;20064;-44
2023/04/19 15:43:48;;;;;;;2.80;2.00;;;17.70;86.00;;;;;;5073043;28;20066;-43
2023/04/19 15:46:14;;;;;;;2.00;1.80;;;17.90;85.20;;;;;;5073590;28;20032;-43
2023/04/19 15:48:41;;;;;;;2.63;1.88;;;17.90;83.90;;;;;;5073034;28;20384;-44
2023/04/19 15:51:07;;;;;;;2.45;2.15;;;18.00;86.20;;;;;;5070211;28;20012;-45
2023/04/19 15:53:34;;;;;;;2.42;2.17;;;17.90;86.40;;;;;;5073313;28;20020;-44
2023/04/19 15:56:00;;;;;;;6.68;2.25;;;17.60;86.00;;;;;;5073179;28;20501;-47
2023/04/19 15:58:26;;;;;;;3.17;2.30;;;17.40;88.50;;;;;;5074848;28;20025;-46
2023/04/19 16:00:52;;;;;;;4.90;2.30;;;17.10;87.80;;;;;;5062393;28;20024;-48
2023/04/19 16:03:17;;;;;;;5.13;2.35;;;16.90;89.10;;;;;;5067834;28;20016;-49
2023/04/19 16:05:43;;;;;;;2.72;2.20;;;17.10;89.60;;;;;;5072656;28;20055;-44
2023/04/19 16:08:10;;;;;;;4.95;2.55;;;17.10;88.70;;;;;;5072301;28;20012;-43
2023/04/19 16:10:37;;;;;;;3.83;2.63;;;17.00;89.20;;;;;;5061072;28;20119;-40
2023/04/19 16:13:04;;;;;;;14.25;3.30;;;16.80;88.90;;;;;;5057951;28;20092;-42
2023/04/19 16:15:30;;;;;;;3.30;2.60;;;16.80;89.30;;;;;;5054483;28;20436;-42
2023/04/19 16:17:55;;;;;;;4.60;2.80;;;16.90;89.50;;;;;;5064467;28;20029;-45
2023/04/19 16:20:21;;;;;;;2.65;2.17;;;16.60;90.00;;;;;;5068003;28;20021;-42
2023/04/19 16:22:47;;;;;;;4.30;2.50;;;16.40;90.10;;;;;;5062036;28;20089;-43
2023/04/19 16:25:14;;;;;;;3.20;2.63;;;16.20;90.50;;;;;;5064299;28;20476;-40
2023/04/19 16:27:42;;;;;;;3.50;2.33;;;16.00;90.90;;;;;;5064729;28;20077;-39
2023/04/19 16:30:09;;;;;;;2.40;2.17;;;15.70;90.40;;;;;;5064188;28;20275;-40
2023/04/19 16:32:35;;;;;;;2.17;1.98;;;15.50;90.50;;;;;;5062692;28;20490;-42
2023/04/19 16:35:00;;;;;;;7.13;2.10;;;15.40;90.80;;;;;;5059685;28;20013;-43
2023/04/19 16:37:26;;;;;;;2.67;2.42;;;15.40;91.20;;;;;;5070923;28;20210;-40
2023/04/19 16:39:52;;;;;;;4.93;2.60;;;15.40;91.20;;;;;;5068576;28;20052;-44
2023/04/19 16:42:17;;;;;;;6.15;2.20;;;15.40;91.50;;;;;;5053626;28;20021;-45
2023/04/19 16:44:43;;;;;;;3.05;2.13;;;15.30;91.40;;;;;;5062491;28;20029;-42
2023/04/19 16:47:08;;;;;;;3.72;2.45;;;15.30;91.20;;;;;;5070604;28;20040;-44
2023/04/19 16:49:34;;;;;;;2.20;1.83;;;15.40;91.90;;;;;;5070987;28;20025;-45
2023/04/19 16:52:00;;;;;;;7.68;2.20;;;15.40;91.80;;;;;;5063011;28;20367;-45
2023/04/19 16:54:25;;;;;;;5.03;3.00;;;15.30;91.40;;;;;;5066659;28;20055;-42
2023/04/19 16:56:51;;;;;;;3.83;2.25;;;15.30;91.70;;;;;;5068124;28;20531;-42
2023/04/19 16:59:16;;;;;;;6.30;1.85;;;15.30;91.70;;;;;;5059304;28;20029;-39
2023/04/19 17:01:43;;;;;;;3.70;1.98;;;15.30;91.70;;;;;;5058567;28;20048;-34
2023/04/19 17:04:08;;;;;;;4.70;2.13;;;15.30;91.40;;;;;;5069108;28;20082;-43
2023/04/19 17:06:34;;;;;;;15.02;2.90;;;15.20;91.30;;;;;;5071115;28;20024;-44
2023/04/19 17:09:03;;;;;;;3.22;2.30;;;15.20;91.70;;;;;;5056258;28;20100;-45
2023/04/19 17:11:31;;;;;;;5.22;1.90;;;15.10;92.00;;;;;;5062706;28;20048;-42
2023/04/19 17:13:57;;;;;;;2.92;1.95;;;15.10;92.10;;;;;;5072136;28;20033;-41
2023/04/19 17:16:23;;;;;;;2.85;2.55;;;15.20;91.80;;;;;;5073168;28;20029;-44
2023/04/19 17:18:49;;;;;;;5.07;2.05;;;15.10;91.90;;;;;;5060455;28;20029;-41
2023/04/19 17:21:15;;;;;;;5.95;2.08;;;15.00;92.20;;;;;;5057395;28;20385;-42
2023/04/19 17:23:43;;;;;;;5.60;2.28;;;15.00;91.90;;;;;;5051749;28;20029;-42
2023/04/19 17:26:08;;;;;;;;;;;15.00;91.70;;;;;;5065978;28;20036;-43
2023/04/19 17:28:40;;;;;;;3.03;1.85;;;14.90;91.80;;;;;;5071515;28;19916;-44
2023/04/19 17:31:06;;;;;;;2.25;1.70;;;14.80;91.50;;;;;;5071335;28;20071;-43
2023/04/19 17:33:32;;;;;;;3.63;1.98;;;14.70;91.90;;;;;;5060993;28;20029;-42
2023/04/19 17:35:58;;;;;;;2.20;2.00;;;14.70;91.90;;;;;;5071138;28;20039;-42
2023/04/19 17:38:24;;;;;;;2.50;1.88;;;14.70;91.60;;;;;;5069584;28;20501;-44
2023/04/19 17:40:49;;;;;;;4.03;1.63;;;14.70;91.70;;;;;;5054006;28;20426;-40
2023/04/19 17:43:15;;;;;;;2.97;1.70;;;14.60;91.60;;;;;;5055973;28;20400;-42
2023/04/19 17:45:41;;;;;;;8.05;1.70;;;14.60;91.90;;;;;;5067638;28;20031;-41
2023/04/19 17:48:06;;;;;;;1.88;1.67;;;14.50;91.60;;;;;;5071708;28;20452;-34
2023/04/19 17:50:32;;;;;;;2.88;2.10;;;14.50;91.70;;;;;;5070528;28;20031;-45
2023/04/19 17:52:58;;;;;;;1.80;1.67;;;14.40;92.00;;;;;;5071186;28;20021;-40
2023/04/19 17:55:24;;;;;;;2.10;1.75;;;14.30;91.80;;;;;;5062728;28;20032;-49
2023/04/19 17:57:50;;;;;;;3.53;1.88;;;14.30;92.30;;;;;;5069049;28;20111;-42
2023/04/19 18:00:16;;;;;;;6.22;1.83;;;14.20;92.00;;;;;;5064888;28;20104;-36
2023/04/19 18:02:42;;;;;;;2.55;1.92;;;14.10;92.20;;;;;;5065600;28;20507;-35
2023/04/19 18:05:08;;;;;;;1.83;1.70;;;14.00;92.30;;;;;;5061597;28;20032;-37
2023/04/19 18:07:37;;;;;;;5.63;1.67;;;13.90;92.30;;;;;;5066937;28;20024;-34
2023/04/19 18:10:05;;;;;;;2.10;1.50;;;13.90;92.40;;;;;;5070701;28;20044;-32
2023/04/19 18:12:30;;;;;;;2.03;1.58;;;13.80;92.40;;;;;;5061779;28;20048;-31
2023/04/19 18:14:56;;;;;;;2.03;1.40;;;13.80;92.30;;;;;;5069007;28;20052;-39
2023/04/19 18:17:22;;;;;;;3.72;1.70;;;13.80;92.00;;;;;;5069226;28;20459;-39
2023/04/19 18:19:48;;;;;;;5.68;1.30;;;13.70;92.20;;;;;;5060954;28;20021;-34
2023/04/19 18:22:13;;;;;;;3.35;1.50;;;13.50;92.50;;;;;;5052738;28;20028;-39
2023/04/19 18:24:46;;;;;;;5.90;1.48;;;13.40;92.70;;;;;;5052506;28;20090;-42
2023/04/19 18:27:12;;;;;;;1.85;1.58;;;13.40;92.90;;;;;;5052100;28;20035;-36
2023/04/19 18:29:38;;;;;;;6.05;2.17;;;13.40;93.40;;;;;;5053499;28;20394;-35
2023/04/19 18:32:04;;;;;;;2.42;1.90;;;13.30;94.10;;;;;;5052213;28;20474;-36
2023/04/19 18:34:30;;;;;;;2.75;2.03;;;13.20;95.00;;;;;;5070706;28;20485;-37
2023/04/19 18:37:00;;;;;;;5.18;2.38;;;13.00;95.60;;;;;;5069200;28;20044;-32
2023/04/19 18:39:26;;;;;;;5.47;2.13;;;12.90;96.50;;;;;;5072739;28;20035;-36
2023/04/19 18:41:51;;;;;;;4.40;2.03;;;12.90;97.10;;;;;;5068962;28;20033;-33
2023/04/19 18:44:17;;;;;;;6.80;2.15;;;12.70;97.90;;;;;;5056061;28;20396;-38
2023/04/19 18:46:43;;;;;;;2.80;2.10;;;12.60;98.20;;;;;;5066227;28;20036;-33
2023/04/19 18:49:09;;;;;;;6.20;2.53;;;12.50;99.10;;;;;;5062650;28;20036;-39
2023/04/19 18:51:35;;;;;;;4.20;2.00;;;12.40;99.00;;;;;;5073448;28;20095;-35
2023/04/19 18:54:01;;;;;;;2.45;1.98;;;12.20;99.30;;;;;;5075452;28;20019;-34
2023/04/19 18:56:27;;;;;;;2.85;2.10;;;12.20;99.50;;;;;;5075043;28;20516;-37
2023/04/19 18:58:53;;;;;;;4.68;2.47;;;12.10;99.70;;;;;;5075837;28;20032;-38
2023/04/19 19:01:19;;;;;;;6.10;2.45;;;12.10;99.80;;;;;;5074203;28;20039;-33
2023/04/19 19:03:45;;;;;;;3.58;2.13;;;12.10;99.90;;;;;;5058580;28;20397;-35
2023/04/19 19:06:11;;;;;;;7.00;2.67;;;11.90;99.90;;;;;;5058472;28;20081;-36
2023/04/19 19:08:38;;;;;;;8.32;3.28;;;11.80;99.90;;;;;;5070897;28;20489;-39
2023/04/19 19:11:04;;;;;;;3.33;2.08;;;11.70;99.90;;;;;;5063116;28;20024;-40
2023/04/19 19:13:30;;;;;;;4.75;1.70;;;11.70;99.90;;;;;;5071224;28;20029;-36
2023/04/19 19:15:55;;;;;;;8.73;2.47;;;11.60;99.90;;;;;;5071136;28;20366;-37
2023/04/19 19:18:21;;;;;;;4.45;1.85;;;11.60;99.90;;;;;;5069864;28;20035;-40
2023/04/19 19:20:47;;;;;;;3.90;2.25;;;11.50;99.90;;;;;;5074834;28;20036;-40
2023/04/19 19:23:13;;;;;;;3.92;1.83;;;11.60;99.90;;;;;;5074807;28;20438;-41
2023/04/19 19:25:39;;;;;;;2.97;1.95;;;11.50;99.90;;;;;;5070140;28;20108;-39
2023/04/19 19:28:05;;;;;;;3.95;2.75;;;11.40;99.90;;;;;;5070128;28;20025;-43
2023/04/19 19:30:33;;;;;;;2.92;2.10;;;11.40;99.90;;;;;;5075242;28;20049;-46
2023/04/19 19:32:59;;;;;;;3.20;2.50;;;11.40;99.90;;;;;;5087621;28;20066;-44
2023/04/19 19:35:25;;;;;;;1.67;1.58;;;11.30;99.90;;;;;;5075540;28;20480;-41
2023/04/19 19:37:51;;;;;;;2.15;1.60;;;11.30;99.90;;;;;;5073065;28;20033;-40
2023/04/19 19:40:18;;;;;;;3.15;1.50;;;11.30;99.90;;;;;;5070753;28;20040;-39
2023/04/19 19:42:44;;;;;;;3.57;1.63;;;11.20;99.90;;;;;;5067549;28;20033;-40
2023/04/19 19:45:10;;;;;;;4.55;2.03;;;11.10;99.90;;;;;;5067805;28;20048;-41
2023/04/19 19:47:36;;;;;;;5.82;1.60;;;11.10;99.90;;;;;;5074223;28;20024;-41
2023/04/19 19:50:04;;;;;;;2.10;1.67;;;11.00;99.90;;;;;;5055489;28;20091;-42
2023/04/19 19:52:30;;;;;;;4.72;1.75;;;11.00;99.90;;;;;;5055371;28;20432;-34